sensor_id;sensor_type;location;lat;lon;timestamp;temperature;humidity
64939;DHT22;51453;47.738;7.420;2023-09-30T00:01:01;17.30;99.90
64939;DHT22;51453;47.738;7.420;2023-09-30T00:03:27;17.30;99.90
64939;DHT22;51453;47.738;7.420;2023-09-30T00:05:54;17.30;99.90
64939;DHT22;51453;47.738;7.420;2023-09-30T00:08:20;17.30;99.90
64939;DHT22;51453;47.738;7.420;2023-09-30T00:10:45;17.30;99.90
64939;DHT22;51453;47.738;7.420;2023-09-30T00:13:12;17.30;99.90
64939;DHT22;51453;47.738;7.420;2023-09-30T00:15:38;17.30;99.90
64939;DHT22;51453;47.738;7.420;2023-09-30T00:18:04;17.30;99.90
64939;DHT22;51453;47.738;7.420;2023-09-30T00:20:30;17.30;99.90
64939;DHT22;51453;47.738;7.420;2023-09-30T00:22:56;17.30;99.90
64939;DHT22;51453;47.738;7.420;2023-09-30T00:25:21;17.30;99.90
64939;DHT22;51453;47.738;7.420;2023-09-30T00:27:48;17.20;99.90
64939;DHT22;51453;47.738;7.420;2023-09-30T00:30:13;17.20;99.90
64939;DHT22;51453;47.738;7.420;2023-09-30T00:32:39;17.20;99.90
64939;DHT22;51453;47.738;7.420;2023-09-30T00:35:06;17.20;99.90
64939;DHT22;51453;47.738;7.420;2023-09-30T00:37:39;17.20;99.90
64939;DHT22;51453;47.738;7.420;2023-09-30T00:40:06;17.20;99.90
64939;DHT22;51453;47.738;7.420;2023-09-30T00:42:32;17.20;99.90
64939;DHT22;51453;47.738;7.420;2023-09-30T00:44:58;17.20;99.90
64939;DHT22;51453;47.738;7.420;2023-09-30T00:47:24;17.20;99.90
64939;DHT22;51453;47.738;7.420;2023-09-30T00:49:52;17.10;99.90
64939;DHT22;51453;47.738;7.420;2023-09-30T00:52:19;17.10;99.90
64939;DHT22;51453;47.738;7.420;2023-09-30T00:54:45;17.10;99.90
64939;DHT22;51453;47.738;7.420;2023-09-30T00:57:11;17.10;99.90
64939;DHT22;51453;47.738;7.420;2023-09-30T00:59:38;17.00;99.90
64939;DHT22;51453;47.738;7.420;2023-09-30T01:02:04;17.00;99.90
64939;DHT22;51453;47.738;7.420;2023-09-30T01:04:31;16.90;99.90
64939;DHT22;51453;47.738;7.420;2023-09-30T01:06:57;16.90;99.90
64939;DHT22;51453;47.738;7.420;2023-09-30T01:09:23;16.90;99.90
64939;DHT22;51453;47.738;7.420;2023-09-30T01:11:49;16.90;99.90
64939;DHT22;51453;47.738;7.420;2023-09-30T01:14:31;16.90;99.90
64939;DHT22;51453;47.738;7.420;2023-09-30T01:16:57;16.80;99.90
64939;DHT22;51453;47.738;7.420;2023-09-30T01:19:23;16.80;99.90
64939;DHT22;51453;47.738;7.420;2023-09-30T01:21:52;16.70;99.90
64939;DHT22;51453;47.738;7.420;2023-09-30T01:24:20;16.60;99.90
64939;DHT22;51453;47.738;7.420;2023-09-30T01:26:45;16.60;99.90
64939;DHT22;51453;47.738;7.420;2023-09-30T01:29:11;16.50;99.90
64939;DHT22;51453;47.738;7.420;2023-09-30T01:31:37;16.40;99.90
64939;DHT22;51453;47.738;7.420;2023-09-30T01:34:04;16.30;99.90
64939;DHT22;51453;47.738;7.420;2023-09-30T01:36:30;16.30;99.90
64939;DHT22;51453;47.738;7.420;2023-09-30T01:38:55;16.20;99.90
64939;DHT22;51453;47.738;7.420;2023-09-30T01:41:22;16.10;99.90
64939;DHT22;51453;47.738;7.420;2023-09-30T01:43:48;16.00;99.90
64939;DHT22;51453;47.738;7.420;2023-09-30T01:46:14;16.00;99.90
64939;DHT22;51453;47.738;7.420;2023-09-30T01:48:39;15.90;99.90
64939;DHT22;51453;47.738;7.420;2023-09-30T01:51:05;15.90;99.90
64939;DHT22;51453;47.738;7.420;2023-09-30T01:53:32;15.80;99.90
64939;DHT22;51453;47.738;7.420;2023-09-30T01:55:58;15.80;99.90
64939;DHT22;51453;47.738;7.420;2023-09-30T01:58:23;15.80;99.90
64939;DHT22;51453;47.738;7.420;2023-09-30T02:00:53;15.80;99.90
64939;DHT22;51453;47.738;7.420;2023-09-30T02:03:19;15.70;99.90
64939;DHT22;51453;47.738;7.420;2023-09-30T02:05:44;15.70;99.90
64939;DHT22;51453;47.738;7.420;2023-09-30T02:08:10;15.60;99.90
64939;DHT22;51453;47.738;7.420;2023-09-30T02:10:36;15.60;99.90
64939;DHT22;51453;47.738;7.420;2023-09-30T02:13:02;15.50;99.90
64939;DHT22;51453;47.738;7.420;2023-09-30T02:15:31;15.50;99.90
64939;DHT22;51453;47.738;7.420;2023-09-30T02:17:57;15.40;99.90
64939;DHT22;51453;47.738;7.420;2023-09-30T02:20:23;15.40;99.90
64939;DHT22;51453;47.738;7.420;2023-09-30T02:22:51;15.30;99.90
64939;DHT22;51453;47.738;7.420;2023-09-30T02:25:17;15.30;99.90
64939;DHT22;51453;47.738;7.420;2023-09-30T02:27:43;15.30;99.90
64939;DHT22;51453;47.738;7.420;2023-09-30T02:30:10;15.30;99.90
64939;DHT22;51453;47.738;7.420;2023-09-30T02:32:38;15.20;99.90
64939;DHT22;51453;47.738;7.420;2023-09-30T02:35:04;15.20;99.90
64939;DHT22;51453;47.738;7.420;2023-09-30T02:37:32;15.20;99.90
64939;DHT22;51453;47.738;7.420;2023-09-30T02:40:01;15.20;99.90
64939;DHT22;51453;47.738;7.420;2023-09-30T02:42:29;15.10;99.90
64939;DHT22;51453;47.738;7.420;2023-09-30T02:44:54;15.10;99.90
64939;DHT22;51453;47.738;7.420;2023-09-30T02:47:20;15.00;99.90
64939;DHT22;51453;47.738;7.420;2023-09-30T02:49:46;15.00;99.90
64939;DHT22;51453;47.738;7.420;2023-09-30T02:52:12;15.00;99.90
64939;DHT22;51453;47.738;7.420;2023-09-30T02:54:38;14.90;99.90
64939;DHT22;51453;47.738;7.420;2023-09-30T02:57:04;15.00;99.90
64939;DHT22;51453;47.738;7.420;2023-09-30T02:59:29;14.90;99.90
64939;DHT22;51453;47.738;7.420;2023-09-30T03:01:55;14.90;99.90
64939;DHT22;51453;47.738;7.420;2023-09-30T03:04:21;14.90;99.90
64939;DHT22;51453;47.738;7.420;2023-09-30T03:06:51;15.00;99.90
64939;DHT22;51453;47.738;7.420;2023-09-30T03:09:17;15.00;99.90
64939;DHT22;51453;47.738;7.420;2023-09-30T03:11:43;15.10;99.90
64939;DHT22;51453;47.738;7.420;2023-09-30T03:14:12;15.10;99.90
64939;DHT22;51453;47.738;7.420;2023-09-30T03:16:39;15.10;99.90
64939;DHT22;51453;47.738;7.420;2023-09-30T03:19:07;15.10;99.90
64939;DHT22;51453;47.738;7.420;2023-09-30T03:21:34;15.20;99.90
64939;DHT22;51453;47.738;7.420;2023-09-30T03:24:03;15.20;99.90
64939;DHT22;51453;47.738;7.420;2023-09-30T03:26:30;15.20;99.90
64939;DHT22;51453;47.738;7.420;2023-09-30T03:28:56;15.20;99.90
64939;DHT22;51453;47.738;7.420;2023-09-30T03:31:22;15.20;99.90
64939;DHT22;51453;47.738;7.420;2023-09-30T03:33:49;15.20;99.90
64939;DHT22;51453;47.738;7.420;2023-09-30T03:36:16;15.20;99.90
64939;DHT22;51453;47.738;7.420;2023-09-30T03:38:44;15.20;99.90
64939;DHT22;51453;47.738;7.420;2023-09-30T03:41:10;15.10;99.90
64939;DHT22;51453;47.738;7.420;2023-09-30T03:43:41;15.10;99.90
64939;DHT22;51453;47.738;7.420;2023-09-30T03:46:08;15.10;99.90
64939;DHT22;51453;47.738;7.420;2023-09-30T03:48:33;15.10;99.90
64939;DHT22;51453;47.738;7.420;2023-09-30T03:51:11;15.00;99.90
64939;DHT22;51453;47.738;7.420;2023-09-30T03:53:46;15.00;99.90
64939;DHT22;51453;47.738;7.420;2023-09-30T03:56:12;14.90;99.90
64939;DHT22;51453;47.738;7.420;2023-09-30T03:58:42;14.90;99.90
64939;DHT22;51453;47.738;7.420;2023-09-30T04:01:09;14.90;99.90
64939;DHT22;51453;47.738;7.420;2023-09-30T04:03:38;14.90;99.90
64939;DHT22;51453;47.738;7.420;2023-09-30T04:06:08;14.80;99.90
64939;DHT22;51453;47.738;7.420;2023-09-30T04:08:34;14.90;99.90
64939;DHT22;51453;47.738;7.420;2023-09-30T04:11:01;14.90;99.90
64939;DHT22;51453;47.738;7.420;2023-09-30T04:13:28;14.90;99.90
64939;DHT22;51453;47.738;7.420;2023-09-30T04:15:55;14.90;99.90
64939;DHT22;51453;47.738;7.420;2023-09-30T04:18:20;14.90;99.90
64939;DHT22;51453;47.738;7.420;2023-09-30T04:20:48;14.90;99.90
64939;DHT22;51453;47.738;7.420;2023-09-30T04:23:13;14.90;99.90
64939;DHT22;51453;47.738;7.420;2023-09-30T04:25:40;14.90;99.90
64939;DHT22;51453;47.738;7.420;2023-09-30T04:28:06;15.00;99.90
64939;DHT22;51453;47.738;7.420;2023-09-30T04:30:35;15.00;99.90
64939;DHT22;51453;47.738;7.420;2023-09-30T04:33:01;15.00;99.90
64939;DHT22;51453;47.738;7.420;2023-09-30T04:35:30;15.00;99.90
64939;DHT22;51453;47.738;7.420;2023-09-30T04:37:56;15.10;99.90
64939;DHT22;51453;47.738;7.420;2023-09-30T04:40:27;15.10;99.90
64939;DHT22;51453;47.738;7.420;2023-09-30T04:42:53;15.20;99.90
64939;DHT22;51453;47.738;7.420;2023-09-30T04:45:24;15.20;99.90
64939;DHT22;51453;47.738;7.420;2023-09-30T04:47:52;15.20;99.90
64939;DHT22;51453;47.738;7.420;2023-09-30T04:50:17;15.30;99.90
64939;DHT22;51453;47.738;7.420;2023-09-30T04:52:44;15.30;99.90
64939;DHT22;51453;47.738;7.420;2023-09-30T04:55:10;15.40;99.90
64939;DHT22;51453;47.738;7.420;2023-09-30T04:57:38;15.40;99.90
64939;DHT22;51453;47.738;7.420;2023-09-30T05:00:04;15.40;99.90
64939;DHT22;51453;47.738;7.420;2023-09-30T05:02:37;15.50;99.90
64939;DHT22;51453;47.738;7.420;2023-09-30T05:05:03;15.50;99.90
64939;DHT22;51453;47.738;7.420;2023-09-30T05:07:32;15.50;99.90
64939;DHT22;51453;47.738;7.420;2023-09-30T05:09:58;15.50;99.90
64939;DHT22;51453;47.738;7.420;2023-09-30T05:12:25;15.50;99.90
64939;DHT22;51453;47.738;7.420;2023-09-30T05:14:51;15.50;99.90
64939;DHT22;51453;47.738;7.420;2023-09-30T05:17:17;15.50;99.90
64939;DHT22;51453;47.738;7.420;2023-09-30T05:19:43;15.60;99.90
64939;DHT22;51453;47.738;7.420;2023-09-30T05:22:09;15.60;99.90
64939;DHT22;51453;47.738;7.420;2023-09-30T05:24:35;15.60;99.90
64939;DHT22;51453;47.738;7.420;2023-09-30T05:27:01;15.60;99.90
64939;DHT22;51453;47.738;7.420;2023-09-30T05:29:27;15.60;99.90
64939;DHT22;51453;47.738;7.420;2023-09-30T05:31:53;15.60;99.90
64939;DHT22;51453;47.738;7.420;2023-09-30T05:34:18;15.60;99.90
64939;DHT22;51453;47.738;7.420;2023-09-30T05:36:44;15.60;99.90
64939;DHT22;51453;47.738;7.420;2023-09-30T05:39:10;15.60;99.90
64939;DHT22;51453;47.738;7.420;2023-09-30T05:41:36;15.60;99.90
64939;DHT22;51453;47.738;7.420;2023-09-30T05:44:03;15.60;99.90
64939;DHT22;51453;47.738;7.420;2023-09-30T05:46:30;15.60;99.90
64939;DHT22;51453;47.738;7.420;2023-09-30T05:48:56;15.60;99.90
64939;DHT22;51453;47.738;7.420;2023-09-30T05:51:22;15.60;99.90
64939;DHT22;51453;47.738;7.420;2023-09-30T05:53:48;15.60;99.90
64939;DHT22;51453;47.738;7.420;2023-09-30T05:56:14;15.50;99.90
64939;DHT22;51453;47.738;7.420;2023-09-30T05:58:43;15.50;99.90
64939;DHT22;51453;47.738;7.420;2023-09-30T06:01:09;15.50;99.90
64939;DHT22;51453;47.738;7.420;2023-09-30T06:03:45;15.50;99.90
64939;DHT22;51453;47.738;7.420;2023-09-30T06:06:15;15.40;99.90
64939;DHT22;51453;47.738;7.420;2023-09-30T06:08:42;15.40;99.90
64939;DHT22;51453;47.738;7.420;2023-09-30T06:11:21;15.40;99.90
64939;DHT22;51453;47.738;7.420;2023-09-30T06:13:55;15.50;99.90
64939;DHT22;51453;47.738;7.420;2023-09-30T06:16:21;15.40;99.90
64939;DHT22;51453;47.738;7.420;2023-09-30T06:18:48;15.50;99.90
64939;DHT22;51453;47.738;7.420;2023-09-30T06:21:14;15.50;99.90
64939;DHT22;51453;47.738;7.420;2023-09-30T06:23:43;15.50;99.90
64939;DHT22;51453;47.738;7.420;2023-09-30T06:26:08;15.60;99.90
64939;DHT22;51453;47.738;7.420;2023-09-30T06:28:35;15.60;99.90
64939;DHT22;51453;47.738;7.420;2023-09-30T06:31:06;15.60;99.90
64939;DHT22;51453;47.738;7.420;2023-09-30T06:33:33;15.70;99.90
64939;DHT22;51453;47.738;7.420;2023-09-30T06:35:59;15.70;99.90
64939;DHT22;51453;47.738;7.420;2023-09-30T06:38:27;15.70;99.90
64939;DHT22;51453;47.738;7.420;2023-09-30T06:40:53;15.80;99.90
64939;DHT22;51453;47.738;7.420;2023-09-30T06:43:19;15.90;99.90
64939;DHT22;51453;47.738;7.420;2023-09-30T06:45:46;15.90;99.90
64939;DHT22;51453;47.738;7.420;2023-09-30T06:48:12;16.00;99.90
64939;DHT22;51453;47.738;7.420;2023-09-30T06:50:45;16.10;99.90
64939;DHT22;51453;47.738;7.420;2023-09-30T06:53:16;16.20;99.90
64939;DHT22;51453;47.738;7.420;2023-09-30T06:55:43;16.30;99.90
64939;DHT22;51453;47.738;7.420;2023-09-30T06:58:09;16.40;99.90
64939;DHT22;51453;47.738;7.420;2023-09-30T07:00:40;16.50;99.90
64939;DHT22;51453;47.738;7.420;2023-09-30T07:03:07;16.50;99.90
64939;DHT22;51453;47.738;7.420;2023-09-30T07:05:36;16.60;99.90
64939;DHT22;51453;47.738;7.420;2023-09-30T07:08:01;16.70;99.90
64939;DHT22;51453;47.738;7.420;2023-09-30T07:10:28;16.70;99.90
64939;DHT22;51453;47.738;7.420;2023-09-30T07:12:55;16.70;99.90
64939;DHT22;51453;47.738;7.420;2023-09-30T07:15:20;16.80;99.90
64939;DHT22;51453;47.738;7.420;2023-09-30T07:17:46;16.80;99.90
64939;DHT22;51453;47.738;7.420;2023-09-30T07:20:13;16.90;99.90
64939;DHT22;51453;47.738;7.420;2023-09-30T07:22:39;17.00;99.90
64939;DHT22;51453;47.738;7.420;2023-09-30T07:25:05;17.00;99.90
64939;DHT22;51453;47.738;7.420;2023-09-30T07:27:30;17.10;99.90
64939;DHT22;51453;47.738;7.420;2023-09-30T07:29:57;17.10;99.90
64939;DHT22;51453;47.738;7.420;2023-09-30T07:32:22;17.20;99.90
64939;DHT22;51453;47.738;7.420;2023-09-30T07:34:49;17.20;99.90
64939;DHT22;51453;47.738;7.420;2023-09-30T07:37:15;17.20;99.90
64939;DHT22;51453;47.738;7.420;2023-09-30T07:39:43;17.30;99.90
64939;DHT22;51453;47.738;7.420;2023-09-30T07:42:09;17.30;99.90
64939;DHT22;51453;47.738;7.420;2023-09-30T07:44:35;17.30;99.90
64939;DHT22;51453;47.738;7.420;2023-09-30T07:47:03;17.40;99.90
64939;DHT22;51453;47.738;7.420;2023-09-30T07:49:29;17.50;99.90
64939;DHT22;51453;47.738;7.420;2023-09-30T07:51:55;17.50;99.90
64939;DHT22;51453;47.738;7.420;2023-09-30T07:54:21;17.60;99.90
64939;DHT22;51453;47.738;7.420;2023-09-30T07:56:46;17.70;99.90
64939;DHT22;51453;47.738;7.420;2023-09-30T07:59:12;17.70;99.90
64939;DHT22;51453;47.738;7.420;2023-09-30T08:01:39;17.80;99.90
64939;DHT22;51453;47.738;7.420;2023-09-30T08:04:05;17.80;99.90
64939;DHT22;51453;47.738;7.420;2023-09-30T08:06:30;17.80;99.90
64939;DHT22;51453;47.738;7.420;2023-09-30T08:08:56;17.90;99.90
64939;DHT22;51453;47.738;7.420;2023-09-30T08:11:22;17.80;99.90
64939;DHT22;51453;47.738;7.420;2023-09-30T08:13:47;17.90;99.90
64939;DHT22;51453;47.738;7.420;2023-09-30T08:16:14;17.90;99.90
64939;DHT22;51453;47.738;7.420;2023-09-30T08:18:39;18.00;99.90
64939;DHT22;51453;47.738;7.420;2023-09-30T08:21:09;18.10;99.90
64939;DHT22;51453;47.738;7.420;2023-09-30T08:23:35;18.10;99.90
64939;DHT22;51453;47.738;7.420;2023-09-30T08:26:01;18.10;99.90
64939;DHT22;51453;47.738;7.420;2023-09-30T08:28:27;18.10;99.90
64939;DHT22;51453;47.738;7.420;2023-09-30T08:30:52;18.20;99.90
64939;DHT22;51453;47.738;7.420;2023-09-30T08:33:24;18.20;99.90
64939;DHT22;51453;47.738;7.420;2023-09-30T08:35:51;18.20;99.90
64939;DHT22;51453;47.738;7.420;2023-09-30T08:38:17;18.30;99.90
64939;DHT22;51453;47.738;7.420;2023-09-30T08:40:44;18.30;99.90
64939;DHT22;51453;47.738;7.420;2023-09-30T08:43:11;18.40;99.90
64939;DHT22;51453;47.738;7.420;2023-09-30T08:45:39;18.50;99.90
64939;DHT22;51453;47.738;7.420;2023-09-30T08:48:07;18.50;99.90
64939;DHT22;51453;47.738;7.420;2023-09-30T08:50:33;18.60;99.90
64939;DHT22;51453;47.738;7.420;2023-09-30T08:53:00;18.70;99.90
64939;DHT22;51453;47.738;7.420;2023-09-30T08:55:27;18.70;99.90
64939;DHT22;51453;47.738;7.420;2023-09-30T08:57:54;18.70;99.90
64939;DHT22;51453;47.738;7.420;2023-09-30T09:00:22;18.70;99.90
64939;DHT22;51453;47.738;7.420;2023-09-30T09:02:49;18.70;99.90
64939;DHT22;51453;47.738;7.420;2023-09-30T09:05:15;18.70;99.90
64939;DHT22;51453;47.738;7.420;2023-09-30T09:07:42;18.80;99.90
64939;DHT22;51453;47.738;7.420;2023-09-30T09:10:12;18.80;99.90
64939;DHT22;51453;47.738;7.420;2023-09-30T09:12:41;18.90;99.90
64939;DHT22;51453;47.738;7.420;2023-09-30T09:15:08;19.00;99.90
64939;DHT22;51453;47.738;7.420;2023-09-30T09:17:45;19.00;99.90
64939;DHT22;51453;47.738;7.420;2023-09-30T09:20:16;19.10;99.90
64939;DHT22;51453;47.738;7.420;2023-09-30T09:22:46;19.10;99.90
64939;DHT22;51453;47.738;7.420;2023-09-30T09:25:12;19.10;99.90
64939;DHT22;51453;47.738;7.420;2023-09-30T09:27:38;19.20;99.90
64939;DHT22;51453;47.738;7.420;2023-09-30T09:30:25;19.10;99.90
64939;DHT22;51453;47.738;7.420;2023-09-30T09:33:05;19.20;99.90
64939;DHT22;51453;47.738;7.420;2023-09-30T09:35:35;19.20;99.90
64939;DHT22;51453;47.738;7.420;2023-09-30T09:38:05;19.20;99.90
64939;DHT22;51453;47.738;7.420;2023-09-30T09:40:32;19.20;99.90
64939;DHT22;51453;47.738;7.420;2023-09-30T09:42:59;19.30;99.90
64939;DHT22;51453;47.738;7.420;2023-09-30T09:45:27;19.30;99.90
64939;DHT22;51453;47.738;7.420;2023-09-30T09:47:54;19.30;99.90
64939;DHT22;51453;47.738;7.420;2023-09-30T09:50:21;19.40;99.90
64939;DHT22;51453;47.738;7.420;2023-09-30T09:52:52;19.40;99.90
64939;DHT22;51453;47.738;7.420;2023-09-30T09:55:20;19.50;99.90
64939;DHT22;51453;47.738;7.420;2023-09-30T09:57:47;19.50;99.90
64939;DHT22;51453;47.738;7.420;2023-09-30T10:00:25;19.60;99.90
64939;DHT22;51453;47.738;7.420;2023-09-30T10:02:51;19.60;99.90
64939;DHT22;51453;47.738;7.420;2023-09-30T10:05:19;19.70;99.90
64939;DHT22;51453;47.738;7.420;2023-09-30T10:10:28;19.70;99.90
64939;DHT22;51453;47.738;7.420;2023-09-30T10:12:55;19.90;99.90
64939;DHT22;51453;47.738;7.420;2023-09-30T10:18:09;20.00;99.90
64939;DHT22;51453;47.738;7.420;2023-09-30T10:20:40;20.00;99.90
64939;DHT22;51453;47.738;7.420;2023-09-30T10:25:51;20.00;99.90
64939;DHT22;51453;47.738;7.420;2023-09-30T10:36:36;20.30;99.90
64939;DHT22;51453;47.738;7.420;2023-09-30T10:39:11;20.40;99.90
64939;DHT22;51453;47.738;7.420;2023-09-30T10:46:59;20.60;99.90
64939;DHT22;51453;47.738;7.420;2023-09-30T10:51:55;20.70;99.90
64939;DHT22;51453;47.738;7.420;2023-09-30T10:54:27;20.80;99.90
64939;DHT22;51453;47.738;7.420;2023-09-30T10:56:53;20.90;99.90
64939;DHT22;51453;47.738;7.420;2023-09-30T10:59:21;20.90;99.90
64939;DHT22;51453;47.738;7.420;2023-09-30T11:01:48;21.00;99.90
64939;DHT22;51453;47.738;7.420;2023-09-30T11:04:14;21.00;99.90
64939;DHT22;51453;47.738;7.420;2023-09-30T11:06:41;21.10;99.90
64939;DHT22;51453;47.738;7.420;2023-09-30T11:09:08;21.20;99.90
64939;DHT22;51453;47.738;7.420;2023-09-30T11:16:52;21.30;99.90
64939;DHT22;51453;47.738;7.420;2023-09-30T11:19:18;21.20;99.90
64939;DHT22;51453;47.738;7.420;2023-09-30T11:21:54;21.30;99.90
64939;DHT22;51453;47.738;7.420;2023-09-30T11:24:21;21.40;99.90
64939;DHT22;51453;47.738;7.420;2023-09-30T11:26:47;21.50;99.90
64939;DHT22;51453;47.738;7.420;2023-09-30T11:29:14;21.50;99.90
64939;DHT22;51453;47.738;7.420;2023-09-30T11:31:45;21.50;99.90
64939;DHT22;51453;47.738;7.420;2023-09-30T11:34:12;21.50;99.90
64939;DHT22;51453;47.738;7.420;2023-09-30T11:36:49;21.40;99.90
64939;DHT22;51453;47.738;7.420;2023-09-30T11:39:23;21.50;99.90
64939;DHT22;51453;47.738;7.420;2023-09-30T11:41:52;21.50;99.90
64939;DHT22;51453;47.738;7.420;2023-09-30T11:44:18;21.50;99.90
64939;DHT22;51453;47.738;7.420;2023-09-30T11:46:54;21.50;99.90
64939;DHT22;51453;47.738;7.420;2023-09-30T11:49:43;21.50;99.90
64939;DHT22;51453;47.738;7.420;2023-09-30T11:52:14;21.50;99.90
64939;DHT22;51453;47.738;7.420;2023-09-30T11:54:44;21.60;99.90
64939;DHT22;51453;47.738;7.420;2023-09-30T11:57:12;21.60;99.90
64939;DHT22;51453;47.738;7.420;2023-09-30T11:59:41;21.70;99.90
64939;DHT22;51453;47.738;7.420;2023-09-30T12:02:10;21.70;99.90
64939;DHT22;51453;47.738;7.420;2023-09-30T12:04:37;21.80;99.90
64939;DHT22;51453;47.738;7.420;2023-09-30T12:07:02;21.90;99.90
64939;DHT22;51453;47.738;7.420;2023-09-30T12:09:28;21.90;99.90
64939;DHT22;51453;47.738;7.420;2023-09-30T12:11:55;21.90;99.90
64939;DHT22;51453;47.738;7.420;2023-09-30T12:14:23;21.90;99.90
64939;DHT22;51453;47.738;7.420;2023-09-30T12:16:49;22.00;99.90
64939;DHT22;51453;47.738;7.420;2023-09-30T12:19:19;22.00;99.90
64939;DHT22;51453;47.738;7.420;2023-09-30T12:21:45;22.10;99.90
64939;DHT22;51453;47.738;7.420;2023-09-30T12:24:13;22.10;99.90
64939;DHT22;51453;47.738;7.420;2023-09-30T12:26:48;22.10;99.90
64939;DHT22;51453;47.738;7.420;2023-09-30T12:29:17;22.10;99.90
64939;DHT22;51453;47.738;7.420;2023-09-30T12:31:48;22.20;99.90
64939;DHT22;51453;47.738;7.420;2023-09-30T12:34:14;22.20;99.90
64939;DHT22;51453;47.738;7.420;2023-09-30T12:36:40;22.30;99.90
64939;DHT22;51453;47.738;7.420;2023-09-30T12:39:07;22.30;99.90
64939;DHT22;51453;47.738;7.420;2023-09-30T12:41:43;22.30;99.90
64939;DHT22;51453;47.738;7.420;2023-09-30T12:44:09;22.30;99.90
64939;DHT22;51453;47.738;7.420;2023-09-30T12:46:36;22.30;99.90
64939;DHT22;51453;47.738;7.420;2023-09-30T12:49:08;22.40;99.90
64939;DHT22;51453;47.738;7.420;2023-09-30T12:51:35;22.40;99.90
64939;DHT22;51453;47.738;7.420;2023-09-30T12:54:01;22.40;99.90
64939;DHT22;51453;47.738;7.420;2023-09-30T12:56:27;22.40;99.90
64939;DHT22;51453;47.738;7.420;2023-09-30T12:58:55;22.50;99.90
64939;DHT22;51453;47.738;7.420;2023-09-30T13:01:20;22.40;99.90
64939;DHT22;51453;47.738;7.420;2023-09-30T13:03:48;22.30;99.90
64939;DHT22;51453;47.738;7.420;2023-09-30T13:06:14;22.30;99.90
64939;DHT22;51453;47.738;7.420;2023-09-30T13:08:41;22.30;99.90
64939;DHT22;51453;47.738;7.420;2023-09-30T13:11:07;22.40;99.90
64939;DHT22;51453;47.738;7.420;2023-09-30T13:13:33;22.40;99.90
64939;DHT22;51453;47.738;7.420;2023-09-30T13:16:03;22.50;99.90
64939;DHT22;51453;47.738;7.420;2023-09-30T13:18:31;22.70;99.90
64939;DHT22;51453;47.738;7.420;2023-09-30T13:20:58;22.70;99.90
64939;DHT22;51453;47.738;7.420;2023-09-30T13:23:23;22.80;99.90
64939;DHT22;51453;47.738;7.420;2023-09-30T13:25:49;22.80;99.90
64939;DHT22;51453;47.738;7.420;2023-09-30T13:28:15;22.80;99.90
64939;DHT22;51453;47.738;7.420;2023-09-30T13:30:40;22.80;99.90
64939;DHT22;51453;47.738;7.420;2023-09-30T13:33:06;22.80;99.90
64939;DHT22;51453;47.738;7.420;2023-09-30T13:35:32;22.70;99.90
64939;DHT22;51453;47.738;7.420;2023-09-30T13:37:58;22.70;99.90
64939;DHT22;51453;47.738;7.420;2023-09-30T13:40:23;22.70;99.90
64939;DHT22;51453;47.738;7.420;2023-09-30T13:42:49;22.70;99.90
64939;DHT22;51453;47.738;7.420;2023-09-30T13:45:15;22.70;99.90
64939;DHT22;51453;47.738;7.420;2023-09-30T13:47:43;22.80;99.90
64939;DHT22;51453;47.738;7.420;2023-09-30T13:50:08;22.80;99.90
64939;DHT22;51453;47.738;7.420;2023-09-30T13:52:34;22.80;99.90
64939;DHT22;51453;47.738;7.420;2023-09-30T13:55:00;22.80;99.90
64939;DHT22;51453;47.738;7.420;2023-09-30T13:57:26;22.70;99.90
64939;DHT22;51453;47.738;7.420;2023-09-30T13:59:51;22.60;99.90
64939;DHT22;51453;47.738;7.420;2023-09-30T14:02:17;22.70;99.90
64939;DHT22;51453;47.738;7.420;2023-09-30T14:04:43;22.70;99.90
64939;DHT22;51453;47.738;7.420;2023-09-30T14:07:09;22.60;99.90
64939;DHT22;51453;47.738;7.420;2023-09-30T14:09:35;22.60;99.90
64939;DHT22;51453;47.738;7.420;2023-09-30T14:12:01;22.50;99.90
64939;DHT22;51453;47.738;7.420;2023-09-30T14:14:27;22.50;99.90
64939;DHT22;51453;47.738;7.420;2023-09-30T14:16:53;22.40;99.90
64939;DHT22;51453;47.738;7.420;2023-09-30T14:19:18;22.40;99.90
64939;DHT22;51453;47.738;7.420;2023-09-30T14:21:44;22.30;99.90
64939;DHT22;51453;47.738;7.420;2023-09-30T14:24:11;22.40;99.90
64939;DHT22;51453;47.738;7.420;2023-09-30T14:26:36;22.20;99.90
64939;DHT22;51453;47.738;7.420;2023-09-30T14:29:03;22.30;99.90
64939;DHT22;51453;47.738;7.420;2023-09-30T14:31:29;22.30;99.90
64939;DHT22;51453;47.738;7.420;2023-09-30T14:33:55;22.30;99.90
64939;DHT22;51453;47.738;7.420;2023-09-30T14:36:20;22.20;99.90
64939;DHT22;51453;47.738;7.420;2023-09-30T14:38:46;22.20;99.90
64939;DHT22;51453;47.738;7.420;2023-09-30T14:41:12;22.20;99.90
64939;DHT22;51453;47.738;7.420;2023-09-30T14:43:41;22.20;99.90
64939;DHT22;51453;47.738;7.420;2023-09-30T14:46:07;22.20;99.90
64939;DHT22;51453;47.738;7.420;2023-09-30T14:48:39;22.20;99.90
64939;DHT22;51453;47.738;7.420;2023-09-30T14:51:05;22.20;99.90
64939;DHT22;51453;47.738;7.420;2023-09-30T14:53:31;22.20;99.90
64939;DHT22;51453;47.738;7.420;2023-09-30T14:55:57;22.20;99.90
64939;DHT22;51453;47.738;7.420;2023-09-30T14:58:23;22.20;99.90
64939;DHT22;51453;47.738;7.420;2023-09-30T15:00:49;22.20;99.90
64939;DHT22;51453;47.738;7.420;2023-09-30T15:03:14;22.10;99.90
64939;DHT22;51453;47.738;7.420;2023-09-30T15:05:40;22.10;99.90
64939;DHT22;51453;47.738;7.420;2023-09-30T15:08:06;22.10;99.90
64939;DHT22;51453;47.738;7.420;2023-09-30T15:10:34;22.00;99.90
64939;DHT22;51453;47.738;7.420;2023-09-30T15:13:02;22.00;99.90
64939;DHT22;51453;47.738;7.420;2023-09-30T15:15:29;22.00;99.90
64939;DHT22;51453;47.738;7.420;2023-09-30T15:17:55;22.00;99.90
64939;DHT22;51453;47.738;7.420;2023-09-30T15:20:21;22.00;99.90
64939;DHT22;51453;47.738;7.420;2023-09-30T15:22:46;21.90;99.90
64939;DHT22;51453;47.738;7.420;2023-09-30T15:25:12;21.90;99.90
64939;DHT22;51453;47.738;7.420;2023-09-30T15:27:38;21.90;99.90
64939;DHT22;51453;47.738;7.420;2023-09-30T15:30:04;22.00;99.90
64939;DHT22;51453;47.738;7.420;2023-09-30T15:32:31;21.90;99.90
64939;DHT22;51453;47.738;7.420;2023-09-30T15:34:57;21.90;99.90
64939;DHT22;51453;47.738;7.420;2023-09-30T15:37:23;21.90;99.90
64939;DHT22;51453;47.738;7.420;2023-09-30T15:39:48;21.90;99.90
64939;DHT22;51453;47.738;7.420;2023-09-30T15:42:14;21.80;99.90
64939;DHT22;51453;47.738;7.420;2023-09-30T15:44:41;21.80;99.90
64939;DHT22;51453;47.738;7.420;2023-09-30T15:47:07;21.90;99.90
64939;DHT22;51453;47.738;7.420;2023-09-30T15:49:34;21.90;99.90
64939;DHT22;51453;47.738;7.420;2023-09-30T15:52:00;21.90;99.90
64939;DHT22;51453;47.738;7.420;2023-09-30T15:54:26;21.90;99.90
64939;DHT22;51453;47.738;7.420;2023-09-30T15:56:52;21.90;99.90
64939;DHT22;51453;47.738;7.420;2023-09-30T15:59:17;21.90;99.90